Terminal Aerodrome Forecast
Issued by NWS

Home | Current Version | Previous Version | Text Only | Print | Product List | Glossary On
Versions: 1 2 3 4 5 6 7 8 9 10 11 12 13 14
000
FTUS46 KPDT 032320
TAFRDM
TAF
KRDM 032320Z 0400/0424 36010KT P6SM VCSH SCT080 OVC120
     FM040500 32008G15KT P6SM SCT100 BKN200
     FM040900 VRB03KT P6SM SKC
     FM042100 33010G18KT P6SM FEW080=

USA.gov is the U.S. government's official web portal to all federal, state and local government web resources and services.